sensor_id;sensor_type;location;lat;lon;timestamp;temperature;humidity
2300;DHT22;1158;48.750;9.078;2023-05-18T00:01:25;1.80;99.90
2300;DHT22;1158;48.750;9.078;2023-05-18T00:03:52;1.80;99.90
2300;DHT22;1158;48.750;9.078;2023-05-18T00:06:20;1.80;99.90
2300;DHT22;1158;48.750;9.078;2023-05-18T00:08:51;1.90;99.90
2300;DHT22;1158;48.750;9.078;2023-05-18T00:11:17;1.90;99.90
2300;DHT22;1158;48.750;9.078;2023-05-18T00:13:44;2.00;99.90
2300;DHT22;1158;48.750;9.078;2023-05-18T00:16:11;2.00;99.90
2300;DHT22;1158;48.750;9.078;2023-05-18T00:18:40;2.10;99.90
2300;DHT22;1158;48.750;9.078;2023-05-18T00:21:06;2.10;99.90
2300;DHT22;1158;48.750;9.078;2023-05-18T00:23:33;2.20;99.90
2300;DHT22;1158;48.750;9.078;2023-05-18T00:26:05;2.10;99.90
2300;DHT22;1158;48.750;9.078;2023-05-18T00:28:31;2.00;99.90
2300;DHT22;1158;48.750;9.078;2023-05-18T00:30:58;2.00;99.90
2300;DHT22;1158;48.750;9.078;2023-05-18T00:33:25;2.00;99.90
2300;DHT22;1158;48.750;9.078;2023-05-18T00:35:52;1.90;99.90
2300;DHT22;1158;48.750;9.078;2023-05-18T00:38:21;1.90;99.90
2300;DHT22;1158;48.750;9.078;2023-05-18T00:40:48;1.90;99.90
2300;DHT22;1158;48.750;9.078;2023-05-18T00:43:16;1.80;99.90
2300;DHT22;1158;48.750;9.078;2023-05-18T00:45:43;1.80;99.90
2300;DHT22;1158;48.750;9.078;2023-05-18T00:48:09;1.70;99.90
2300;DHT22;1158;48.750;9.078;2023-05-18T00:50:36;1.70;99.90
2300;DHT22;1158;48.750;9.078;2023-05-18T00:53:03;1.70;99.90
2300;DHT22;1158;48.750;9.078;2023-05-18T00:55:30;1.60;99.90
2300;DHT22;1158;48.750;9.078;2023-05-18T00:57:58;1.60;99.90
2300;DHT22;1158;48.750;9.078;2023-05-18T01:00:28;1.70;99.90
2300;DHT22;1158;48.750;9.078;2023-05-18T01:02:54;1.70;99.90
2300;DHT22;1158;48.750;9.078;2023-05-18T01:05:21;1.70;99.90
2300;DHT22;1158;48.750;9.078;2023-05-18T01:07:48;1.70;99.90
2300;DHT22;1158;48.750;9.078;2023-05-18T01:10:17;1.70;99.90
2300;DHT22;1158;48.750;9.078;2023-05-18T01:12:48;1.70;99.90
2300;DHT22;1158;48.750;9.078;2023-05-18T01:15:18;1.70;99.90
2300;DHT22;1158;48.750;9.078;2023-05-18T01:18:01;1.60;99.90
2300;DHT22;1158;48.750;9.078;2023-05-18T01:20:36;1.50;99.90
2300;DHT22;1158;48.750;9.078;2023-05-18T01:23:26;1.50;99.90
2300;DHT22;1158;48.750;9.078;2023-05-18T01:26:10;1.50;99.90
2300;DHT22;1158;48.750;9.078;2023-05-18T01:28:40;1.50;99.90
2300;DHT22;1158;48.750;9.078;2023-05-18T01:31:08;1.40;99.90
2300;DHT22;1158;48.750;9.078;2023-05-18T01:33:36;1.40;99.90
2300;DHT22;1158;48.750;9.078;2023-05-18T01:36:03;1.30;99.90
2300;DHT22;1158;48.750;9.078;2023-05-18T01:38:29;1.30;99.90
2300;DHT22;1158;48.750;9.078;2023-05-18T01:41:01;1.30;99.90
2300;DHT22;1158;48.750;9.078;2023-05-18T01:43:32;1.20;99.90
2300;DHT22;1158;48.750;9.078;2023-05-18T01:46:04;1.30;99.90
2300;DHT22;1158;48.750;9.078;2023-05-18T01:48:35;1.40;99.90
2300;DHT22;1158;48.750;9.078;2023-05-18T01:51:03;1.30;99.90
2300;DHT22;1158;48.750;9.078;2023-05-18T01:53:35;1.30;99.90
2300;DHT22;1158;48.750;9.078;2023-05-18T01:56:06;1.20;99.90
2300;DHT22;1158;48.750;9.078;2023-05-18T01:58:36;1.10;99.90
2300;DHT22;1158;48.750;9.078;2023-05-18T02:01:03;1.10;99.90
2300;DHT22;1158;48.750;9.078;2023-05-18T02:03:30;1.10;99.90
2300;DHT22;1158;48.750;9.078;2023-05-18T02:05:57;1.10;99.90
2300;DHT22;1158;48.750;9.078;2023-05-18T02:08:24;1.00;99.90
2300;DHT22;1158;48.750;9.078;2023-05-18T02:10:50;0.90;99.90
2300;DHT22;1158;48.750;9.078;2023-05-18T02:13:17;0.90;99.90
2300;DHT22;1158;48.750;9.078;2023-05-18T02:15:45;0.90;99.90
2300;DHT22;1158;48.750;9.078;2023-05-18T02:18:12;1.00;99.90
2300;DHT22;1158;48.750;9.078;2023-05-18T02:20:39;0.90;99.90
2300;DHT22;1158;48.750;9.078;2023-05-18T02:23:06;0.90;99.90
2300;DHT22;1158;48.750;9.078;2023-05-18T02:25:32;0.80;99.90
2300;DHT22;1158;48.750;9.078;2023-05-18T02:27:59;0.80;99.90
2300;DHT22;1158;48.750;9.078;2023-05-18T02:30:26;0.80;99.90
2300;DHT22;1158;48.750;9.078;2023-05-18T02:32:55;0.80;99.90
2300;DHT22;1158;48.750;9.078;2023-05-18T02:35:21;0.70;99.90
2300;DHT22;1158;48.750;9.078;2023-05-18T02:37:48;0.80;99.90
2300;DHT22;1158;48.750;9.078;2023-05-18T02:40:15;0.80;99.90
2300;DHT22;1158;48.750;9.078;2023-05-18T02:42:42;0.80;99.90
2300;DHT22;1158;48.750;9.078;2023-05-18T02:45:10;0.80;99.90
2300;DHT22;1158;48.750;9.078;2023-05-18T02:47:36;0.70;99.90
2300;DHT22;1158;48.750;9.078;2023-05-18T02:50:05;0.60;99.90
2300;DHT22;1158;48.750;9.078;2023-05-18T02:52:32;0.60;99.90
2300;DHT22;1158;48.750;9.078;2023-05-18T02:54:59;0.60;99.90
2300;DHT22;1158;48.750;9.078;2023-05-18T02:57:26;0.60;99.90
2300;DHT22;1158;48.750;9.078;2023-05-18T02:59:52;0.60;99.90
2300;DHT22;1158;48.750;9.078;2023-05-18T03:02:19;0.50;99.90
2300;DHT22;1158;48.750;9.078;2023-05-18T03:04:48;0.40;99.90
2300;DHT22;1158;48.750;9.078;2023-05-18T03:07:19;0.40;99.90
2300;DHT22;1158;48.750;9.078;2023-05-18T03:09:46;0.40;99.90
2300;DHT22;1158;48.750;9.078;2023-05-18T03:12:13;0.30;99.90
2300;DHT22;1158;48.750;9.078;2023-05-18T03:14:40;0.30;99.90
2300;DHT22;1158;48.750;9.078;2023-05-18T03:17:06;0.30;99.90
2300;DHT22;1158;48.750;9.078;2023-05-18T03:19:33;0.30;99.90
2300;DHT22;1158;48.750;9.078;2023-05-18T03:22:00;0.30;99.90
2300;DHT22;1158;48.750;9.078;2023-05-18T03:24:29;0.30;99.90
2300;DHT22;1158;48.750;9.078;2023-05-18T03:27:05;0.30;99.90
2300;DHT22;1158;48.750;9.078;2023-05-18T03:29:31;0.30;99.90
2300;DHT22;1158;48.750;9.078;2023-05-18T03:31:58;0.20;99.90
2300;DHT22;1158;48.750;9.078;2023-05-18T03:34:25;0.10;99.90
2300;DHT22;1158;48.750;9.078;2023-05-18T03:36:52;0.10;99.90
2300;DHT22;1158;48.750;9.078;2023-05-18T03:39:19;0.10;99.90
2300;DHT22;1158;48.750;9.078;2023-05-18T03:41:47;0.10;99.90
2300;DHT22;1158;48.750;9.078;2023-05-18T03:44:14;0.10;99.90
2300;DHT22;1158;48.750;9.078;2023-05-18T03:46:41;0.10;99.90
2300;DHT22;1158;48.750;9.078;2023-05-18T03:49:07;0.10;99.90
2300;DHT22;1158;48.750;9.078;2023-05-18T03:51:34;0.10;99.90
2300;DHT22;1158;48.750;9.078;2023-05-18T03:54:01;0.10;99.90
2300;DHT22;1158;48.750;9.078;2023-05-18T03:56:27;0.10;99.90
2300;DHT22;1158;48.750;9.078;2023-05-18T03:58:57;0.20;99.90
2300;DHT22;1158;48.750;9.078;2023-05-18T04:01:24;0.20;99.90
2300;DHT22;1158;48.750;9.078;2023-05-18T04:03:54;0.20;99.90
2300;DHT22;1158;48.750;9.078;2023-05-18T04:06:22;0.20;99.90
2300;DHT22;1158;48.750;9.078;2023-05-18T04:08:50;0.20;99.90
2300;DHT22;1158;48.750;9.078;2023-05-18T04:11:17;0.20;99.90
2300;DHT22;1158;48.750;9.078;2023-05-18T04:13:44;0.40;99.90
2300;DHT22;1158;48.750;9.078;2023-05-18T04:16:12;0.40;99.90
2300;DHT22;1158;48.750;9.078;2023-05-18T04:18:39;0.40;99.90
2300;DHT22;1158;48.750;9.078;2023-05-18T04:21:06;0.40;99.90
2300;DHT22;1158;48.750;9.078;2023-05-18T04:23:33;0.50;99.90
2300;DHT22;1158;48.750;9.078;2023-05-18T04:26:03;0.60;99.90
2300;DHT22;1158;48.750;9.078;2023-05-18T04:28:30;0.70;99.90
2300;DHT22;1158;48.750;9.078;2023-05-18T04:30:57;0.70;99.90
2300;DHT22;1158;48.750;9.078;2023-05-18T04:33:27;0.80;99.90
2300;DHT22;1158;48.750;9.078;2023-05-18T04:35:54;0.80;99.90
2300;DHT22;1158;48.750;9.078;2023-05-18T04:38:23;0.90;99.90
2300;DHT22;1158;48.750;9.078;2023-05-18T04:40:50;1.00;99.90
2300;DHT22;1158;48.750;9.078;2023-05-18T04:43:18;1.10;99.90
2300;DHT22;1158;48.750;9.078;2023-05-18T04:45:45;1.20;99.90
2300;DHT22;1158;48.750;9.078;2023-05-18T04:48:15;1.30;99.90
2300;DHT22;1158;48.750;9.078;2023-05-18T04:50:44;1.40;99.90
2300;DHT22;1158;48.750;9.078;2023-05-18T04:53:11;1.60;99.90
2300;DHT22;1158;48.750;9.078;2023-05-18T04:55:38;1.70;99.90
2300;DHT22;1158;48.750;9.078;2023-05-18T04:58:07;1.90;99.90
2300;DHT22;1158;48.750;9.078;2023-05-18T05:00:34;2.00;99.90
2300;DHT22;1158;48.750;9.078;2023-05-18T05:03:02;2.20;99.90
2300;DHT22;1158;48.750;9.078;2023-05-18T05:05:29;2.30;99.90
2300;DHT22;1158;48.750;9.078;2023-05-18T05:07:57;2.40;99.90
2300;DHT22;1158;48.750;9.078;2023-05-18T05:10:24;2.70;99.90
2300;DHT22;1158;48.750;9.078;2023-05-18T05:12:52;2.80;99.90
2300;DHT22;1158;48.750;9.078;2023-05-18T05:15:19;3.00;99.90
2300;DHT22;1158;48.750;9.078;2023-05-18T05:17:46;3.20;99.90
2300;DHT22;1158;48.750;9.078;2023-05-18T05:20:13;3.30;99.90
2300;DHT22;1158;48.750;9.078;2023-05-18T05:22:39;3.60;99.90
2300;DHT22;1158;48.750;9.078;2023-05-18T05:25:08;3.70;99.90
2300;DHT22;1158;48.750;9.078;2023-05-18T05:27:34;3.90;99.90
2300;DHT22;1158;48.750;9.078;2023-05-18T05:30:01;4.00;99.90
2300;DHT22;1158;48.750;9.078;2023-05-18T05:32:29;4.30;99.90
2300;DHT22;1158;48.750;9.078;2023-05-18T05:34:56;4.60;99.90
2300;DHT22;1158;48.750;9.078;2023-05-18T05:37:22;5.00;99.90
2300;DHT22;1158;48.750;9.078;2023-05-18T05:39:49;5.30;99.90
2300;DHT22;1158;48.750;9.078;2023-05-18T05:42:17;5.40;99.90
2300;DHT22;1158;48.750;9.078;2023-05-18T05:44:44;5.70;99.90
2300;DHT22;1158;48.750;9.078;2023-05-18T05:47:10;5.90;99.90
2300;DHT22;1158;48.750;9.078;2023-05-18T05:49:37;6.40;99.90
2300;DHT22;1158;48.750;9.078;2023-05-18T05:52:04;7.50;99.90
2300;DHT22;1158;48.750;9.078;2023-05-18T05:54:31;8.50;99.90
2300;DHT22;1158;48.750;9.078;2023-05-18T05:56:58;9.80;99.90
2300;DHT22;1158;48.750;9.078;2023-05-18T05:59:26;11.00;99.90
2300;DHT22;1158;48.750;9.078;2023-05-18T06:01:52;11.00;99.90
2300;DHT22;1158;48.750;9.078;2023-05-18T06:04:19;11.70;99.90
2300;DHT22;1158;48.750;9.078;2023-05-18T06:06:46;12.00;99.90
2300;DHT22;1158;48.750;9.078;2023-05-18T06:09:13;12.60;99.90
2300;DHT22;1158;48.750;9.078;2023-05-18T06:11:40;12.80;99.90
2300;DHT22;1158;48.750;9.078;2023-05-18T06:14:07;13.50;99.90
2300;DHT22;1158;48.750;9.078;2023-05-18T06:16:35;13.90;99.90
2300;DHT22;1158;48.750;9.078;2023-05-18T06:19:01;13.50;99.90
2300;DHT22;1158;48.750;9.078;2023-05-18T06:21:28;13.80;98.80
2300;DHT22;1158;48.750;9.078;2023-05-18T06:23:55;14.60;97.50
2300;DHT22;1158;48.750;9.078;2023-05-18T06:26:22;15.10;97.10
2300;DHT22;1158;48.750;9.078;2023-05-18T06:28:49;15.50;95.60
2300;DHT22;1158;48.750;9.078;2023-05-18T06:31:15;16.10;94.30
2300;DHT22;1158;48.750;9.078;2023-05-18T06:33:44;16.40;93.20
2300;DHT22;1158;48.750;9.078;2023-05-18T06:36:11;16.30;93.70
2300;DHT22;1158;48.750;9.078;2023-05-18T06:38:38;16.60;92.80
2300;DHT22;1158;48.750;9.078;2023-05-18T06:41:04;16.70;92.50
2300;DHT22;1158;48.750;9.078;2023-05-18T06:43:31;16.80;92.00
2300;DHT22;1158;48.750;9.078;2023-05-18T06:45:58;15.50;93.40
2300;DHT22;1158;48.750;9.078;2023-05-18T06:48:26;15.40;92.80
2300;DHT22;1158;48.750;9.078;2023-05-18T06:50:54;15.40;92.60
2300;DHT22;1158;48.750;9.078;2023-05-18T06:53:21;15.90;93.10
2300;DHT22;1158;48.750;9.078;2023-05-18T06:55:48;16.60;91.60
2300;DHT22;1158;48.750;9.078;2023-05-18T06:58:15;16.50;91.70
2300;DHT22;1158;48.750;9.078;2023-05-18T07:00:41;16.30;91.60
2300;DHT22;1158;48.750;9.078;2023-05-18T07:03:08;16.10;91.60
2300;DHT22;1158;48.750;9.078;2023-05-18T07:05:35;14.90;93.00
2300;DHT22;1158;48.750;9.078;2023-05-18T07:08:03;14.90;93.30
2300;DHT22;1158;48.750;9.078;2023-05-18T07:10:31;15.20;93.00
2300;DHT22;1158;48.750;9.078;2023-05-18T07:12:59;16.30;92.00
2300;DHT22;1158;48.750;9.078;2023-05-18T07:15:26;16.90;90.90
2300;DHT22;1158;48.750;9.078;2023-05-18T07:17:53;17.30;91.60
2300;DHT22;1158;48.750;9.078;2023-05-18T07:20:20;18.10;90.40
2300;DHT22;1158;48.750;9.078;2023-05-18T07:22:47;18.30;90.30
2300;DHT22;1158;48.750;9.078;2023-05-18T07:25:15;17.20;91.20
2300;DHT22;1158;48.750;9.078;2023-05-18T07:27:42;17.50;91.30
2300;DHT22;1158;48.750;9.078;2023-05-18T07:30:09;17.10;91.70
2300;DHT22;1158;48.750;9.078;2023-05-18T07:32:36;17.70;90.70
2300;DHT22;1158;48.750;9.078;2023-05-18T07:35:03;17.70;90.40
2300;DHT22;1158;48.750;9.078;2023-05-18T07:37:30;17.50;91.60
2300;DHT22;1158;48.750;9.078;2023-05-18T07:39:57;16.90;91.60
2300;DHT22;1158;48.750;9.078;2023-05-18T07:42:25;17.90;90.90
2300;DHT22;1158;48.750;9.078;2023-05-18T07:44:52;18.90;89.90
2300;DHT22;1158;48.750;9.078;2023-05-18T07:47:19;18.00;89.00
2300;DHT22;1158;48.750;9.078;2023-05-18T07:49:46;16.40;91.20
2300;DHT22;1158;48.750;9.078;2023-05-18T07:52:13;17.30;91.20
2300;DHT22;1158;48.750;9.078;2023-05-18T07:54:39;17.70;90.20
2300;DHT22;1158;48.750;9.078;2023-05-18T07:57:09;18.10;90.50
2300;DHT22;1158;48.750;9.078;2023-05-18T07:59:37;18.30;89.40
2300;DHT22;1158;48.750;9.078;2023-05-18T08:02:04;17.80;90.50
2300;DHT22;1158;48.750;9.078;2023-05-18T08:04:31;18.20;90.50
2300;DHT22;1158;48.750;9.078;2023-05-18T08:06:57;17.20;90.70
2300;DHT22;1158;48.750;9.078;2023-05-18T08:09:25;17.80;91.10
2300;DHT22;1158;48.750;9.078;2023-05-18T08:11:51;18.00;90.50
2300;DHT22;1158;48.750;9.078;2023-05-18T08:14:19;18.40;89.80
2300;DHT22;1158;48.750;9.078;2023-05-18T08:16:47;18.30;89.10
2300;DHT22;1158;48.750;9.078;2023-05-18T08:19:14;18.50;90.10
2300;DHT22;1158;48.750;9.078;2023-05-18T08:21:40;18.20;89.70
2300;DHT22;1158;48.750;9.078;2023-05-18T08:24:08;18.50;89.50
2300;DHT22;1158;48.750;9.078;2023-05-18T08:26:35;17.50;90.40
2300;DHT22;1158;48.750;9.078;2023-05-18T08:29:02;17.50;90.80
2300;DHT22;1158;48.750;9.078;2023-05-18T08:31:34;18.10;90.10
2300;DHT22;1158;48.750;9.078;2023-05-18T08:34:02;18.60;89.60
2300;DHT22;1158;48.750;9.078;2023-05-18T08:36:30;18.80;88.60
2300;DHT22;1158;48.750;9.078;2023-05-18T08:38:57;19.10;88.90
2300;DHT22;1158;48.750;9.078;2023-05-18T08:41:27;19.70;89.10
2300;DHT22;1158;48.750;9.078;2023-05-18T08:44:00;20.30;85.80
2300;DHT22;1158;48.750;9.078;2023-05-18T08:46:31;19.30;86.50
2300;DHT22;1158;48.750;9.078;2023-05-18T08:49:01;19.70;86.50
2300;DHT22;1158;48.750;9.078;2023-05-18T08:51:33;20.50;86.90
2300;DHT22;1158;48.750;9.078;2023-05-18T08:54:00;19.60;85.00
2300;DHT22;1158;48.750;9.078;2023-05-18T08:56:30;19.40;84.30
2300;DHT22;1158;48.750;9.078;2023-05-18T08:58:58;19.90;85.50
2300;DHT22;1158;48.750;9.078;2023-05-18T09:01:25;18.70;85.60
2300;DHT22;1158;48.750;9.078;2023-05-18T09:03:54;19.20;85.70
2300;DHT22;1158;48.750;9.078;2023-05-18T09:06:23;20.30;82.40
2300;DHT22;1158;48.750;9.078;2023-05-18T09:08:51;20.60;82.90
2300;DHT22;1158;48.750;9.078;2023-05-18T09:11:19;20.50;82.90
2300;DHT22;1158;48.750;9.078;2023-05-18T09:13:47;20.90;81.60
2300;DHT22;1158;48.750;9.078;2023-05-18T09:16:15;20.20;81.00
2300;DHT22;1158;48.750;9.078;2023-05-18T09:18:42;20.60;79.80
2300;DHT22;1158;48.750;9.078;2023-05-18T09:21:09;20.20;79.40
2300;DHT22;1158;48.750;9.078;2023-05-18T09:23:38;19.90;82.00
2300;DHT22;1158;48.750;9.078;2023-05-18T09:26:05;20.50;81.00
2300;DHT22;1158;48.750;9.078;2023-05-18T09:28:36;20.20;81.40
2300;DHT22;1158;48.750;9.078;2023-05-18T09:31:03;21.00;80.50
2300;DHT22;1158;48.750;9.078;2023-05-18T09:33:32;21.00;78.80
2300;DHT22;1158;48.750;9.078;2023-05-18T09:35:59;21.70;77.90
2300;DHT22;1158;48.750;9.078;2023-05-18T09:38:27;21.50;78.10
2300;DHT22;1158;48.750;9.078;2023-05-18T09:40:55;21.40;75.30
2300;DHT22;1158;48.750;9.078;2023-05-18T09:43:22;21.00;77.60
2300;DHT22;1158;48.750;9.078;2023-05-18T09:45:48;20.60;76.70
2300;DHT22;1158;48.750;9.078;2023-05-18T09:48:15;20.90;79.20
2300;DHT22;1158;48.750;9.078;2023-05-18T09:50:42;21.80;75.70
2300;DHT22;1158;48.750;9.078;2023-05-18T09:53:11;21.20;76.70
2300;DHT22;1158;48.750;9.078;2023-05-18T09:55:45;21.50;75.60
2300;DHT22;1158;48.750;9.078;2023-05-18T09:58:13;21.80;74.20
2300;DHT22;1158;48.750;9.078;2023-05-18T10:00:41;21.60;74.80
2300;DHT22;1158;48.750;9.078;2023-05-18T10:03:18;20.80;76.00
2300;DHT22;1158;48.750;9.078;2023-05-18T10:05:46;21.70;76.40
2300;DHT22;1158;48.750;9.078;2023-05-18T10:08:13;21.70;73.60
2300;DHT22;1158;48.750;9.078;2023-05-18T10:10:42;21.70;73.90
2300;DHT22;1158;48.750;9.078;2023-05-18T10:13:13;21.80;74.20
2300;DHT22;1158;48.750;9.078;2023-05-18T10:15:50;21.80;73.80
2300;DHT22;1158;48.750;9.078;2023-05-18T10:18:21;20.90;75.60
2300;DHT22;1158;48.750;9.078;2023-05-18T10:20:49;20.50;75.00
2300;DHT22;1158;48.750;9.078;2023-05-18T10:23:17;21.50;75.50
2300;DHT22;1158;48.750;9.078;2023-05-18T10:25:46;21.60;75.20
2300;DHT22;1158;48.750;9.078;2023-05-18T10:28:18;22.00;74.60
2300;DHT22;1158;48.750;9.078;2023-05-18T10:30:51;22.00;73.30
2300;DHT22;1158;48.750;9.078;2023-05-18T10:33:19;22.10;72.00
2300;DHT22;1158;48.750;9.078;2023-05-18T10:35:46;22.10;73.20
2300;DHT22;1158;48.750;9.078;2023-05-18T10:38:17;22.10;73.50
2300;DHT22;1158;48.750;9.078;2023-05-18T10:40:46;22.00;70.80
2300;DHT22;1158;48.750;9.078;2023-05-18T10:43:15;21.90;73.70
2300;DHT22;1158;48.750;9.078;2023-05-18T10:45:46;21.60;73.30
2300;DHT22;1158;48.750;9.078;2023-05-18T10:48:14;21.20;73.90
2300;DHT22;1158;48.750;9.078;2023-05-18T10:50:41;22.20;73.80
2300;DHT22;1158;48.750;9.078;2023-05-18T10:53:09;22.20;72.50
2300;DHT22;1158;48.750;9.078;2023-05-18T10:55:36;21.90;74.30
2300;DHT22;1158;48.750;9.078;2023-05-18T10:58:06;22.10;72.40
2300;DHT22;1158;48.750;9.078;2023-05-18T11:00:37;22.60;73.10
2300;DHT22;1158;48.750;9.078;2023-05-18T11:03:08;22.90;72.00
2300;DHT22;1158;48.750;9.078;2023-05-18T11:05:37;23.00;71.10
2300;DHT22;1158;48.750;9.078;2023-05-18T11:08:05;23.30;71.10
2300;DHT22;1158;48.750;9.078;2023-05-18T11:10:33;23.30;69.70
2300;DHT22;1158;48.750;9.078;2023-05-18T11:13:00;23.00;68.40
2300;DHT22;1158;48.750;9.078;2023-05-18T11:16:02;23.10;69.40
2300;DHT22;1158;48.750;9.078;2023-05-18T11:18:38;22.80;68.20
2300;DHT22;1158;48.750;9.078;2023-05-18T11:21:28;23.20;69.70
2300;DHT22;1158;48.750;9.078;2023-05-18T11:24:19;22.80;69.40
2300;DHT22;1158;48.750;9.078;2023-05-18T11:26:47;22.60;68.80
2300;DHT22;1158;48.750;9.078;2023-05-18T11:29:15;23.00;71.80
2300;DHT22;1158;48.750;9.078;2023-05-18T11:31:44;23.70;68.10
2300;DHT22;1158;48.750;9.078;2023-05-18T11:34:33;22.60;68.10
2300;DHT22;1158;48.750;9.078;2023-05-18T11:37:01;23.40;69.20
2300;DHT22;1158;48.750;9.078;2023-05-18T11:39:27;23.90;67.30
2300;DHT22;1158;48.750;9.078;2023-05-18T11:42:02;23.80;67.20
2300;DHT22;1158;48.750;9.078;2023-05-18T11:44:30;22.60;68.60
2300;DHT22;1158;48.750;9.078;2023-05-18T11:47:03;22.20;69.60
2300;DHT22;1158;48.750;9.078;2023-05-18T11:49:32;22.60;68.20
2300;DHT22;1158;48.750;9.078;2023-05-18T11:52:04;22.80;67.40
2300;DHT22;1158;48.750;9.078;2023-05-18T11:54:38;23.50;67.90
2300;DHT22;1158;48.750;9.078;2023-05-18T11:57:05;24.10;68.70
2300;DHT22;1158;48.750;9.078;2023-05-18T11:59:33;24.40;67.60
2300;DHT22;1158;48.750;9.078;2023-05-18T12:02:03;24.80;66.40
2300;DHT22;1158;48.750;9.078;2023-05-18T12:04:31;24.70;66.00
2300;DHT22;1158;48.750;9.078;2023-05-18T12:06:58;24.70;66.40
2300;DHT22;1158;48.750;9.078;2023-05-18T12:09:26;25.20;68.40
2300;DHT22;1158;48.750;9.078;2023-05-18T12:11:55;24.30;64.80
2300;DHT22;1158;48.750;9.078;2023-05-18T12:14:23;22.80;68.40
2300;DHT22;1158;48.750;9.078;2023-05-18T12:16:51;23.00;69.20
2300;DHT22;1158;48.750;9.078;2023-05-18T12:19:19;23.40;68.50
2300;DHT22;1158;48.750;9.078;2023-05-18T12:21:47;24.10;65.60
2300;DHT22;1158;48.750;9.078;2023-05-18T12:24:14;24.40;66.70
2300;DHT22;1158;48.750;9.078;2023-05-18T12:26:41;23.60;66.10
2300;DHT22;1158;48.750;9.078;2023-05-18T12:29:11;22.20;67.30
2300;DHT22;1158;48.750;9.078;2023-05-18T12:31:44;21.70;68.60
2300;DHT22;1158;48.750;9.078;2023-05-18T12:34:11;22.00;69.30
2300;DHT22;1158;48.750;9.078;2023-05-18T12:36:49;22.20;69.10
2300;DHT22;1158;48.750;9.078;2023-05-18T12:39:16;21.70;69.30
2300;DHT22;1158;48.750;9.078;2023-05-18T12:41:43;22.20;71.80
2300;DHT22;1158;48.750;9.078;2023-05-18T12:44:10;22.60;68.00
2300;DHT22;1158;48.750;9.078;2023-05-18T12:46:36;22.40;69.20
2300;DHT22;1158;48.750;9.078;2023-05-18T12:49:04;22.70;70.70
2300;DHT22;1158;48.750;9.078;2023-05-18T12:51:32;23.00;71.20
2300;DHT22;1158;48.750;9.078;2023-05-18T12:54:01;23.80;70.60
2300;DHT22;1158;48.750;9.078;2023-05-18T12:56:52;24.30;67.30
2300;DHT22;1158;48.750;9.078;2023-05-18T12:59:24;24.00;66.90
2300;DHT22;1158;48.750;9.078;2023-05-18T13:01:51;22.80;68.70
2300;DHT22;1158;48.750;9.078;2023-05-18T13:04:18;22.30;71.40
2300;DHT22;1158;48.750;9.078;2023-05-18T13:06:44;22.20;69.20
2300;DHT22;1158;48.750;9.078;2023-05-18T13:09:14;22.40;70.70
2300;DHT22;1158;48.750;9.078;2023-05-18T13:11:48;22.10;67.30
2300;DHT22;1158;48.750;9.078;2023-05-18T13:14:19;21.60;70.20
2300;DHT22;1158;48.750;9.078;2023-05-18T13:16:49;20.80;72.10
2300;DHT22;1158;48.750;9.078;2023-05-18T13:19:16;21.30;71.90
2300;DHT22;1158;48.750;9.078;2023-05-18T13:21:44;21.50;71.60
2300;DHT22;1158;48.750;9.078;2023-05-18T13:24:12;21.20;72.50
2300;DHT22;1158;48.750;9.078;2023-05-18T13:26:40;20.90;72.70
2300;DHT22;1158;48.750;9.078;2023-05-18T13:29:07;22.00;71.00
2300;DHT22;1158;48.750;9.078;2023-05-18T13:31:34;22.80;71.60
2300;DHT22;1158;48.750;9.078;2023-05-18T13:34:00;22.20;69.40
2300;DHT22;1158;48.750;9.078;2023-05-18T13:36:28;20.90;71.90
2300;DHT22;1158;48.750;9.078;2023-05-18T13:38:58;20.70;74.00
2300;DHT22;1158;48.750;9.078;2023-05-18T13:41:25;20.90;73.20
2300;DHT22;1158;48.750;9.078;2023-05-18T13:43:53;20.90;70.80
2300;DHT22;1158;48.750;9.078;2023-05-18T13:46:20;21.30;72.90
2300;DHT22;1158;48.750;9.078;2023-05-18T13:48:47;22.50;72.60
2300;DHT22;1158;48.750;9.078;2023-05-18T13:51:13;24.40;70.30
2300;DHT22;1158;48.750;9.078;2023-05-18T13:53:40;24.50;65.50
2300;DHT22;1158;48.750;9.078;2023-05-18T13:56:07;24.40;66.50
2300;DHT22;1158;48.750;9.078;2023-05-18T13:58:33;23.20;68.50
2300;DHT22;1158;48.750;9.078;2023-05-18T14:01:02;22.20;73.40
2300;DHT22;1158;48.750;9.078;2023-05-18T14:03:32;23.20;71.10
2300;DHT22;1158;48.750;9.078;2023-05-18T14:06:01;24.40;70.50
2300;DHT22;1158;48.750;9.078;2023-05-18T14:08:27;24.90;66.90
2300;DHT22;1158;48.750;9.078;2023-05-18T14:10:54;24.80;67.20
2300;DHT22;1158;48.750;9.078;2023-05-18T14:13:21;25.80;65.50
2300;DHT22;1158;48.750;9.078;2023-05-18T14:15:48;24.80;64.40
2300;DHT22;1158;48.750;9.078;2023-05-18T14:18:16;23.70;68.10
2300;DHT22;1158;48.750;9.078;2023-05-18T14:20:42;22.50;67.20
2300;DHT22;1158;48.750;9.078;2023-05-18T14:23:10;22.10;68.70
2300;DHT22;1158;48.750;9.078;2023-05-18T14:25:37;21.10;71.30
2300;DHT22;1158;48.750;9.078;2023-05-18T14:28:04;20.90;72.40
2300;DHT22;1158;48.750;9.078;2023-05-18T14:30:31;21.20;71.80
2300;DHT22;1158;48.750;9.078;2023-05-18T14:32:57;22.30;70.40
2300;DHT22;1158;48.750;9.078;2023-05-18T14:35:27;23.00;66.40
2300;DHT22;1158;48.750;9.078;2023-05-18T14:37:54;22.20;70.60
2300;DHT22;1158;48.750;9.078;2023-05-18T14:40:21;21.40;67.80
2300;DHT22;1158;48.750;9.078;2023-05-18T14:42:48;20.90;71.30
2300;DHT22;1158;48.750;9.078;2023-05-18T14:45:15;20.70;70.60
2300;DHT22;1158;48.750;9.078;2023-05-18T14:47:42;20.80;69.70
2300;DHT22;1158;48.750;9.078;2023-05-18T14:50:09;20.70;71.70
2300;DHT22;1158;48.750;9.078;2023-05-18T14:52:37;20.30;71.80
2300;DHT22;1158;48.750;9.078;2023-05-18T14:55:04;21.10;70.50
2300;DHT22;1158;48.750;9.078;2023-05-18T14:57:31;21.30;68.20
2300;DHT22;1158;48.750;9.078;2023-05-18T14:59:58;20.30;69.60
2300;DHT22;1158;48.750;9.078;2023-05-18T15:02:24;19.60;71.20
2300;DHT22;1158;48.750;9.078;2023-05-18T15:04:51;18.80;71.70
2300;DHT22;1158;48.750;9.078;2023-05-18T15:07:18;18.60;73.10
2300;DHT22;1158;48.750;9.078;2023-05-18T15:09:46;18.50;73.20
2300;DHT22;1158;48.750;9.078;2023-05-18T15:12:13;18.40;72.60
2300;DHT22;1158;48.750;9.078;2023-05-18T15:14:41;18.00;73.00
2300;DHT22;1158;48.750;9.078;2023-05-18T15:17:08;17.80;73.80
2300;DHT22;1158;48.750;9.078;2023-05-18T15:19:34;17.90;72.90
2300;DHT22;1158;48.750;9.078;2023-05-18T15:22:01;17.80;73.50
2300;DHT22;1158;48.750;9.078;2023-05-18T15:24:28;17.80;74.00
2300;DHT22;1158;48.750;9.078;2023-05-18T15:26:56;18.00;74.60
2300;DHT22;1158;48.750;9.078;2023-05-18T15:29:23;17.60;74.20
2300;DHT22;1158;48.750;9.078;2023-05-18T15:31:50;17.40;75.50
2300;DHT22;1158;48.750;9.078;2023-05-18T15:34:18;17.40;75.40
2300;DHT22;1158;48.750;9.078;2023-05-18T15:36:45;17.50;76.60
2300;DHT22;1158;48.750;9.078;2023-05-18T15:39:13;17.50;75.30
2300;DHT22;1158;48.750;9.078;2023-05-18T15:41:39;17.40;75.60
2300;DHT22;1158;48.750;9.078;2023-05-18T15:44:07;17.20;76.30
2300;DHT22;1158;48.750;9.078;2023-05-18T15:46:34;17.20;75.50
2300;DHT22;1158;48.750;9.078;2023-05-18T15:49:01;17.20;75.60
2300;DHT22;1158;48.750;9.078;2023-05-18T15:51:28;17.30;76.00
2300;DHT22;1158;48.750;9.078;2023-05-18T15:53:55;17.20;75.40
2300;DHT22;1158;48.750;9.078;2023-05-18T15:56:22;17.20;75.60
2300;DHT22;1158;48.750;9.078;2023-05-18T15:58:48;17.00;76.10
2300;DHT22;1158;48.750;9.078;2023-05-18T16:01:16;17.00;76.90
2300;DHT22;1158;48.750;9.078;2023-05-18T16:03:43;17.00;77.60
2300;DHT22;1158;48.750;9.078;2023-05-18T16:06:10;17.10;78.30
2300;DHT22;1158;48.750;9.078;2023-05-18T16:08:37;17.00;78.20
2300;DHT22;1158;48.750;9.078;2023-05-18T16:11:04;16.80;77.90
2300;DHT22;1158;48.750;9.078;2023-05-18T16:13:31;16.70;78.80